sensor_id;sensor_type;location;lat;lon;timestamp;temperature;humidity
74520;DHT22;63002;48.134;-1.948;2024-02-14T06:00:07;18.90;60.60
74520;DHT22;63002;48.134;-1.948;2024-02-14T06:02:37;18.90;60.50
74520;DHT22;63002;48.134;-1.948;2024-02-14T06:05:03;18.90;60.50
74520;DHT22;63002;48.134;-1.948;2024-02-14T06:07:29;18.90;60.50
74520;DHT22;63002;48.134;-1.948;2024-02-14T06:09:55;18.90;60.40
74520;DHT22;63002;48.134;-1.948;2024-02-14T06:12:20;19.00;60.30
74520;DHT22;63002;48.134;-1.948;2024-02-14T06:14:49;18.90;60.30
74520;DHT22;63002;48.134;-1.948;2024-02-14T06:17:16;19.00;60.30
74520;DHT22;63002;48.134;-1.948;2024-02-14T06:19:48;19.10;60.50
74520;DHT22;63002;48.134;-1.948;2024-02-14T06:22:14;19.20;60.70
74520;DHT22;63002;48.134;-1.948;2024-02-14T06:24:39;19.20;60.70
74520;DHT22;63002;48.134;-1.948;2024-02-14T06:27:06;19.40;62.10
74520;DHT22;63002;48.134;-1.948;2024-02-14T06:29:31;19.50;62.10
74520;DHT22;63002;48.134;-1.948;2024-02-14T06:31:57;19.60;61.70
74520;DHT22;63002;48.134;-1.948;2024-02-14T06:34:23;19.50;61.80
74520;DHT22;63002;48.134;-1.948;2024-02-14T06:36:49;19.40;61.90
74520;DHT22;63002;48.134;-1.948;2024-02-14T06:39:14;19.30;61.80
74520;DHT22;63002;48.134;-1.948;2024-02-14T06:41:40;18.90;61.00
74520;DHT22;63002;48.134;-1.948;2024-02-14T06:44:06;19.00;61.60
74520;DHT22;63002;48.134;-1.948;2024-02-14T06:46:32;19.10;61.00
74520;DHT22;63002;48.134;-1.948;2024-02-14T06:48:58;19.10;61.40
74520;DHT22;63002;48.134;-1.948;2024-02-14T06:51:23;19.10;61.40
74520;DHT22;63002;48.134;-1.948;2024-02-14T06:53:50;19.10;61.30
74520;DHT22;63002;48.134;-1.948;2024-02-14T06:56:16;19.20;61.30
74520;DHT22;63002;48.134;-1.948;2024-02-14T06:58:42;19.20;61.20
74520;DHT22;63002;48.134;-1.948;2024-02-14T07:01:07;19.20;61.20
74520;DHT22;63002;48.134;-1.948;2024-02-14T07:03:33;19.20;61.30
74520;DHT22;63002;48.134;-1.948;2024-02-14T07:05:59;19.20;61.30
74520;DHT22;63002;48.134;-1.948;2024-02-14T07:08:25;19.20;61.20
74520;DHT22;63002;48.134;-1.948;2024-02-14T07:10:54;19.20;61.30
74520;DHT22;63002;48.134;-1.948;2024-02-14T07:13:21;19.20;61.30
74520;DHT22;63002;48.134;-1.948;2024-02-14T07:15:47;19.50;61.80
74520;DHT22;63002;48.134;-1.948;2024-02-14T07:18:12;19.60;61.30
74520;DHT22;63002;48.134;-1.948;2024-02-14T07:20:38;19.50;61.50
74520;DHT22;63002;48.134;-1.948;2024-02-14T07:23:06;19.40;61.60
74520;DHT22;63002;48.134;-1.948;2024-02-14T07:25:33;19.40;61.60
74520;DHT22;63002;48.134;-1.948;2024-02-14T07:27:59;19.40;61.60
74520;DHT22;63002;48.134;-1.948;2024-02-14T07:30:24;19.40;61.50
74520;DHT22;63002;48.134;-1.948;2024-02-14T07:32:50;19.40;61.40
74520;DHT22;63002;48.134;-1.948;2024-02-14T07:35:17;19.40;61.40
74520;DHT22;63002;48.134;-1.948;2024-02-14T07:37:43;19.30;61.30
74520;DHT22;63002;48.134;-1.948;2024-02-14T07:40:10;19.30;61.30
74520;DHT22;63002;48.134;-1.948;2024-02-14T07:42:35;19.30;61.30
74520;DHT22;63002;48.134;-1.948;2024-02-14T07:45:01;19.30;61.10
74520;DHT22;63002;48.134;-1.948;2024-02-14T07:47:29;19.30;61.00
74520;DHT22;63002;48.134;-1.948;2024-02-14T07:49:55;19.30;61.10
74520;DHT22;63002;48.134;-1.948;2024-02-14T07:52:20;19.30;61.10
74520;DHT22;63002;48.134;-1.948;2024-02-14T07:54:46;19.30;61.00
74520;DHT22;63002;48.134;-1.948;2024-02-14T07:57:12;19.30;61.10
74520;DHT22;63002;48.134;-1.948;2024-02-14T07:59:38;19.30;61.10
74520;DHT22;63002;48.134;-1.948;2024-02-14T08:02:04;19.30;61.10
74520;DHT22;63002;48.134;-1.948;2024-02-14T08:04:29;19.30;61.10
74520;DHT22;63002;48.134;-1.948;2024-02-14T08:06:55;19.30;61.00
74520;DHT22;63002;48.134;-1.948;2024-02-14T08:09:21;19.30;61.10
74520;DHT22;63002;48.134;-1.948;2024-02-14T08:11:47;19.30;61.10
74520;DHT22;63002;48.134;-1.948;2024-02-14T08:14:12;19.30;61.10
74520;DHT22;63002;48.134;-1.948;2024-02-14T08:16:38;19.30;61.10
74520;DHT22;63002;48.134;-1.948;2024-02-14T08:19:04;19.30;61.00
74520;DHT22;63002;48.134;-1.948;2024-02-14T08:21:29;19.30;61.00
74520;DHT22;63002;48.134;-1.948;2024-02-14T08:23:56;19.30;61.00
74520;DHT22;63002;48.134;-1.948;2024-02-14T08:26:22;19.30;60.90
74520;DHT22;63002;48.134;-1.948;2024-02-14T08:28:51;19.30;60.90
74520;DHT22;63002;48.134;-1.948;2024-02-14T08:31:17;19.30;60.90
74520;DHT22;63002;48.134;-1.948;2024-02-14T08:33:43;19.30;60.80
74520;DHT22;63002;48.134;-1.948;2024-02-14T08:36:08;19.30;60.80
74520;DHT22;63002;48.134;-1.948;2024-02-14T08:38:35;19.30;60.70
74520;DHT22;63002;48.134;-1.948;2024-02-14T08:41:02;19.30;60.70
74520;DHT22;63002;48.134;-1.948;2024-02-14T08:43:28;19.20;60.70
74520;DHT22;63002;48.134;-1.948;2024-02-14T08:45:54;19.20;60.60
74520;DHT22;63002;48.134;-1.948;2024-02-14T08:48:21;19.20;60.70
74520;DHT22;63002;48.134;-1.948;2024-02-14T08:50:47;19.20;60.70
74520;DHT22;63002;48.134;-1.948;2024-02-14T08:53:13;19.20;60.70
74520;DHT22;63002;48.134;-1.948;2024-02-14T08:55:42;19.20;60.70
74520;DHT22;63002;48.134;-1.948;2024-02-14T08:58:08;19.20;60.60
74520;DHT22;63002;48.134;-1.948;2024-02-14T09:00:37;19.20;60.70
74520;DHT22;63002;48.134;-1.948;2024-02-14T09:03:04;19.20;60.60
74520;DHT22;63002;48.134;-1.948;2024-02-14T09:05:31;19.20;60.60
74520;DHT22;63002;48.134;-1.948;2024-02-14T09:07:57;19.20;60.60
74520;DHT22;63002;48.134;-1.948;2024-02-14T09:10:23;19.20;60.50
74520;DHT22;63002;48.134;-1.948;2024-02-14T09:12:49;19.20;60.60
74520;DHT22;63002;48.134;-1.948;2024-02-14T09:15:15;19.20;60.60
74520;DHT22;63002;48.134;-1.948;2024-02-14T09:17:42;19.20;60.60
74520;DHT22;63002;48.134;-1.948;2024-02-14T09:20:08;19.20;60.50
74520;DHT22;63002;48.134;-1.948;2024-02-14T09:22:37;19.20;60.50
74520;DHT22;63002;48.134;-1.948;2024-02-14T09:25:04;19.20;60.50
74520;DHT22;63002;48.134;-1.948;2024-02-14T09:27:30;19.20;60.50
74520;DHT22;63002;48.134;-1.948;2024-02-14T09:29:56;19.20;60.50
74520;DHT22;63002;48.134;-1.948;2024-02-14T09:32:22;19.20;60.50
74520;DHT22;63002;48.134;-1.948;2024-02-14T09:34:47;19.20;60.50
74520;DHT22;63002;48.134;-1.948;2024-02-14T09:37:13;19.20;60.40
74520;DHT22;63002;48.134;-1.948;2024-02-14T09:39:39;18.80;60.60
74520;DHT22;63002;48.134;-1.948;2024-02-14T09:42:16;19.00;61.00
74520;DHT22;63002;48.134;-1.948;2024-02-14T09:44:44;19.10;60.80
74520;DHT22;63002;48.134;-1.948;2024-02-14T09:47:11;19.10;59.80
74520;DHT22;63002;48.134;-1.948;2024-02-14T09:49:38;18.90;60.80
74520;DHT22;63002;48.134;-1.948;2024-02-14T09:52:05;19.10;60.20
74520;DHT22;63002;48.134;-1.948;2024-02-14T09:54:32;18.40;61.40
74520;DHT22;63002;48.134;-1.948;2024-02-14T09:57:02;18.40;62.20
74520;DHT22;63002;48.134;-1.948;2024-02-14T09:59:29;18.70;61.80
74520;DHT22;63002;48.134;-1.948;2024-02-14T10:01:54;18.90;61.40
74520;DHT22;63002;48.134;-1.948;2024-02-14T10:04:20;19.00;61.20
74520;DHT22;63002;48.134;-1.948;2024-02-14T10:06:47;19.10;60.90
74520;DHT22;63002;48.134;-1.948;2024-02-14T10:09:21;19.10;60.90
74520;DHT22;63002;48.134;-1.948;2024-02-14T10:11:51;19.20;60.80
74520;DHT22;63002;48.134;-1.948;2024-02-14T10:14:18;19.20;60.70
74520;DHT22;63002;48.134;-1.948;2024-02-14T10:16:44;19.30;60.50
74520;DHT22;63002;48.134;-1.948;2024-02-14T10:19:18;19.30;60.60
74520;DHT22;63002;48.134;-1.948;2024-02-14T10:21:44;19.30;60.60
74520;DHT22;63002;48.134;-1.948;2024-02-14T10:24:20;19.40;60.50
74520;DHT22;63002;48.134;-1.948;2024-02-14T10:26:45;19.40;60.50
74520;DHT22;63002;48.134;-1.948;2024-02-14T10:29:11;19.40;60.50
74520;DHT22;63002;48.134;-1.948;2024-02-14T10:31:37;19.40;60.50
74520;DHT22;63002;48.134;-1.948;2024-02-14T10:34:04;19.40;60.50
74520;DHT22;63002;48.134;-1.948;2024-02-14T10:36:32;19.40;60.30
74520;DHT22;63002;48.134;-1.948;2024-02-14T10:39:01;19.40;60.40
74520;DHT22;63002;48.134;-1.948;2024-02-14T10:41:30;19.50;60.50
74520;DHT22;63002;48.134;-1.948;2024-02-14T10:44:04;19.50;60.50
74520;DHT22;63002;48.134;-1.948;2024-02-14T10:46:32;19.50;60.50
74520;DHT22;63002;48.134;-1.948;2024-02-14T10:49:03;19.50;60.50
74520;DHT22;63002;48.134;-1.948;2024-02-14T10:51:31;19.50;60.50
74520;DHT22;63002;48.134;-1.948;2024-02-14T10:53:58;19.50;60.50
74520;DHT22;63002;48.134;-1.948;2024-02-14T10:56:28;19.50;60.40
74520;DHT22;63002;48.134;-1.948;2024-02-14T10:58:56;19.50;60.40
74520;DHT22;63002;48.134;-1.948;2024-02-14T11:01:28;19.50;60.50
74520;DHT22;63002;48.134;-1.948;2024-02-14T11:04:00;19.60;60.40
74520;DHT22;63002;48.134;-1.948;2024-02-14T11:06:27;19.60;60.40
74520;DHT22;63002;48.134;-1.948;2024-02-14T11:09:02;19.60;60.40
74520;DHT22;63002;48.134;-1.948;2024-02-14T11:11:33;19.60;60.50
74520;DHT22;63002;48.134;-1.948;2024-02-14T11:13:59;19.60;60.50
74520;DHT22;63002;48.134;-1.948;2024-02-14T11:16:30;19.10;60.70
74520;DHT22;63002;48.134;-1.948;2024-02-14T11:19:08;19.30;61.30
74520;DHT22;63002;48.134;-1.948;2024-02-14T11:21:41;19.40;61.10
74520;DHT22;63002;48.134;-1.948;2024-02-14T11:24:11;19.40;60.70
74520;DHT22;63002;48.134;-1.948;2024-02-14T11:26:39;19.40;60.80
74520;DHT22;63002;48.134;-1.948;2024-02-14T11:29:05;19.30;60.90
74520;DHT22;63002;48.134;-1.948;2024-02-14T11:31:33;19.30;60.90
74520;DHT22;63002;48.134;-1.948;2024-02-14T11:34:04;19.30;60.80
74520;DHT22;63002;48.134;-1.948;2024-02-14T11:36:32;19.30;60.80
74520;DHT22;63002;48.134;-1.948;2024-02-14T11:38:59;19.30;60.80
74520;DHT22;63002;48.134;-1.948;2024-02-14T11:41:27;19.30;60.70
74520;DHT22;63002;48.134;-1.948;2024-02-14T11:43:53;19.30;60.70
74520;DHT22;63002;48.134;-1.948;2024-02-14T11:46:19;19.30;60.60
74520;DHT22;63002;48.134;-1.948;2024-02-14T11:48:45;19.30;60.60
74520;DHT22;63002;48.134;-1.948;2024-02-14T11:51:14;19.30;60.60
74520;DHT22;63002;48.134;-1.948;2024-02-14T11:53:40;19.30;60.60
74520;DHT22;63002;48.134;-1.948;2024-02-14T11:56:06;19.30;60.50
74520;DHT22;63002;48.134;-1.948;2024-02-14T11:58:32;19.30;60.70
74520;DHT22;63002;48.134;-1.948;2024-02-14T12:00:57;19.30;60.60
74520;DHT22;63002;48.134;-1.948;2024-02-14T12:03:23;19.30;60.60
74520;DHT22;63002;48.134;-1.948;2024-02-14T12:05:52;19.30;60.60
74520;DHT22;63002;48.134;-1.948;2024-02-14T12:08:18;19.30;60.60
74520;DHT22;63002;48.134;-1.948;2024-02-14T12:10:45;19.30;60.60
74520;DHT22;63002;48.134;-1.948;2024-02-14T12:13:16;19.20;60.60
74520;DHT22;63002;48.134;-1.948;2024-02-14T12:15:45;19.20;60.60
74520;DHT22;63002;48.134;-1.948;2024-02-14T12:18:11;19.20;60.60
74520;DHT22;63002;48.134;-1.948;2024-02-14T12:20:37;19.20;60.60
74520;DHT22;63002;48.134;-1.948;2024-02-14T12:23:04;19.20;60.60
74520;DHT22;63002;48.134;-1.948;2024-02-14T12:25:34;19.20;60.60
74520;DHT22;63002;48.134;-1.948;2024-02-14T12:28:00;19.20;60.50
74520;DHT22;63002;48.134;-1.948;2024-02-14T12:30:54;19.20;60.50
74520;DHT22;63002;48.134;-1.948;2024-02-14T12:33:26;19.20;60.50
74520;DHT22;63002;48.134;-1.948;2024-02-14T12:35:54;19.20;60.50
74520;DHT22;63002;48.134;-1.948;2024-02-14T12:38:21;19.20;60.50
74520;DHT22;63002;48.134;-1.948;2024-02-14T12:40:49;19.20;60.50
74520;DHT22;63002;48.134;-1.948;2024-02-14T12:43:19;19.20;60.50
74520;DHT22;63002;48.134;-1.948;2024-02-14T12:45:44;19.20;60.60
74520;DHT22;63002;48.134;-1.948;2024-02-14T12:48:12;19.20;60.50
74520;DHT22;63002;48.134;-1.948;2024-02-14T12:50:39;19.20;60.60
74520;DHT22;63002;48.134;-1.948;2024-02-14T12:53:06;19.20;60.50
74520;DHT22;63002;48.134;-1.948;2024-02-14T12:55:32;19.20;60.50
74520;DHT22;63002;48.134;-1.948;2024-02-14T12:57:58;19.20;60.50
74520;DHT22;63002;48.134;-1.948;2024-02-14T13:00:24;19.20;60.50
74520;DHT22;63002;48.134;-1.948;2024-02-14T13:02:52;19.20;60.50
74520;DHT22;63002;48.134;-1.948;2024-02-14T13:05:19;19.20;60.50
74520;DHT22;63002;48.134;-1.948;2024-02-14T13:07:45;19.30;60.90
74520;DHT22;63002;48.134;-1.948;2024-02-14T13:10:12;19.30;60.80
74520;DHT22;63002;48.134;-1.948;2024-02-14T13:12:38;19.30;60.90
74520;DHT22;63002;48.134;-1.948;2024-02-14T13:15:07;19.30;60.90
74520;DHT22;63002;48.134;-1.948;2024-02-14T13:17:33;19.30;60.80
74520;DHT22;63002;48.134;-1.948;2024-02-14T13:19:59;19.30;60.80
74520;DHT22;63002;48.134;-1.948;2024-02-14T13:22:26;19.30;60.80
74520;DHT22;63002;48.134;-1.948;2024-02-14T13:24:52;19.20;60.70
74520;DHT22;63002;48.134;-1.948;2024-02-14T13:27:17;19.30;60.70
74520;DHT22;63002;48.134;-1.948;2024-02-14T13:29:45;19.30;60.70
74520;DHT22;63002;48.134;-1.948;2024-02-14T13:32:11;19.30;60.60
74520;DHT22;63002;48.134;-1.948;2024-02-14T13:34:38;19.30;60.70
74520;DHT22;63002;48.134;-1.948;2024-02-14T13:37:04;19.30;60.60
74520;DHT22;63002;48.134;-1.948;2024-02-14T13:39:31;19.30;60.60
74520;DHT22;63002;48.134;-1.948;2024-02-14T13:41:57;19.30;60.60
74520;DHT22;63002;48.134;-1.948;2024-02-14T13:44:25;19.30;60.60
74520;DHT22;63002;48.134;-1.948;2024-02-14T13:46:51;19.30;60.60
74520;DHT22;63002;48.134;-1.948;2024-02-14T13:49:18;19.30;60.60
74520;DHT22;63002;48.134;-1.948;2024-02-14T13:51:50;19.30;60.60
74520;DHT22;63002;48.134;-1.948;2024-02-14T13:54:17;19.30;60.60
74520;DHT22;63002;48.134;-1.948;2024-02-14T13:56:43;19.30;60.60
74520;DHT22;63002;48.134;-1.948;2024-02-14T13:59:10;19.30;60.60
74520;DHT22;63002;48.134;-1.948;2024-02-14T14:01:36;19.30;60.60
74520;DHT22;63002;48.134;-1.948;2024-02-14T14:04:03;19.30;60.60
74520;DHT22;63002;48.134;-1.948;2024-02-14T14:06:29;19.30;60.50
74520;DHT22;63002;48.134;-1.948;2024-02-14T14:08:55;19.30;60.60
74520;DHT22;63002;48.134;-1.948;2024-02-14T14:11:21;19.30;60.50
74520;DHT22;63002;48.134;-1.948;2024-02-14T14:13:47;19.30;60.50
74520;DHT22;63002;48.134;-1.948;2024-02-14T14:16:13;19.30;60.50
74520;DHT22;63002;48.134;-1.948;2024-02-14T14:18:38;19.30;60.50
74520;DHT22;63002;48.134;-1.948;2024-02-14T14:21:05;19.30;60.50
74520;DHT22;63002;48.134;-1.948;2024-02-14T14:23:30;19.30;60.50
74520;DHT22;63002;48.134;-1.948;2024-02-14T14:25:58;19.30;60.50
74520;DHT22;63002;48.134;-1.948;2024-02-14T14:28:24;19.30;60.40
74520;DHT22;63002;48.134;-1.948;2024-02-14T14:30:53;19.30;60.50
74520;DHT22;63002;48.134;-1.948;2024-02-14T14:33:22;19.20;60.60
74520;DHT22;63002;48.134;-1.948;2024-02-14T14:35:48;19.30;60.50
74520;DHT22;63002;48.134;-1.948;2024-02-14T14:38:19;19.30;60.60
74520;DHT22;63002;48.134;-1.948;2024-02-14T14:40:45;19.30;60.60
74520;DHT22;63002;48.134;-1.948;2024-02-14T14:43:12;19.20;60.60
74520;DHT22;63002;48.134;-1.948;2024-02-14T14:45:38;19.20;60.60
74520;DHT22;63002;48.134;-1.948;2024-02-14T14:48:04;19.30;60.60
74520;DHT22;63002;48.134;-1.948;2024-02-14T14:50:30;19.30;60.60
74520;DHT22;63002;48.134;-1.948;2024-02-14T14:52:58;19.30;60.60
74520;DHT22;63002;48.134;-1.948;2024-02-14T14:55:25;19.30;60.60
74520;DHT22;63002;48.134;-1.948;2024-02-14T14:57:51;19.30;60.50
74520;DHT22;63002;48.134;-1.948;2024-02-14T15:00:17;19.30;60.50
74520;DHT22;63002;48.134;-1.948;2024-02-14T15:02:43;19.30;60.60
74520;DHT22;63002;48.134;-1.948;2024-02-14T15:05:11;19.30;60.70
74520;DHT22;63002;48.134;-1.948;2024-02-14T15:07:40;19.30;60.70
74520;DHT22;63002;48.134;-1.948;2024-02-14T15:10:06;19.30;60.70
74520;DHT22;63002;48.134;-1.948;2024-02-14T15:12:36;19.30;60.60
74520;DHT22;63002;48.134;-1.948;2024-02-14T15:15:05;19.30;60.60
74520;DHT22;63002;48.134;-1.948;2024-02-14T15:17:31;19.30;60.50
74520;DHT22;63002;48.134;-1.948;2024-02-14T15:19:57;19.30;60.50
74520;DHT22;63002;48.134;-1.948;2024-02-14T15:22:23;19.30;60.50
74520;DHT22;63002;48.134;-1.948;2024-02-14T15:24:55;19.30;60.50
74520;DHT22;63002;48.134;-1.948;2024-02-14T15:27:21;19.30;60.50
74520;DHT22;63002;48.134;-1.948;2024-02-14T15:29:50;19.30;60.50
74520;DHT22;63002;48.134;-1.948;2024-02-14T15:32:34;19.30;60.40
74520;DHT22;63002;48.134;-1.948;2024-02-14T15:35:18;19.30;60.40
74520;DHT22;63002;48.134;-1.948;2024-02-14T15:37:45;19.30;60.50
74520;DHT22;63002;48.134;-1.948;2024-02-14T15:40:16;19.30;60.40
74520;DHT22;63002;48.134;-1.948;2024-02-14T15:42:43;19.30;60.30
74520;DHT22;63002;48.134;-1.948;2024-02-14T15:45:09;19.30;60.50
74520;DHT22;63002;48.134;-1.948;2024-02-14T15:47:43;19.30;60.40
74520;DHT22;63002;48.134;-1.948;2024-02-14T15:50:09;19.30;60.40
74520;DHT22;63002;48.134;-1.948;2024-02-14T15:52:35;19.30;60.40
74520;DHT22;63002;48.134;-1.948;2024-02-14T15:55:01;19.30;60.40
74520;DHT22;63002;48.134;-1.948;2024-02-14T15:57:26;19.30;60.30
74520;DHT22;63002;48.134;-1.948;2024-02-14T15:59:52;19.30;60.30
74520;DHT22;63002;48.134;-1.948;2024-02-14T16:02:18;19.20;60.00
74520;DHT22;63002;48.134;-1.948;2024-02-14T16:04:43;19.10;60.30
74520;DHT22;63002;48.134;-1.948;2024-02-14T16:07:10;19.20;60.20
74520;DHT22;63002;48.134;-1.948;2024-02-14T16:09:35;19.20;60.10
74520;DHT22;63002;48.134;-1.948;2024-02-14T16:12:02;19.20;60.10
74520;DHT22;63002;48.134;-1.948;2024-02-14T16:14:28;19.20;60.20
74520;DHT22;63002;48.134;-1.948;2024-02-14T16:16:53;19.20;60.30
74520;DHT22;63002;48.134;-1.948;2024-02-14T16:19:19;19.20;60.30
74520;DHT22;63002;48.134;-1.948;2024-02-14T16:21:45;19.20;60.30
74520;DHT22;63002;48.134;-1.948;2024-02-14T16:24:11;19.20;60.40
74520;DHT22;63002;48.134;-1.948;2024-02-14T16:26:37;19.20;60.20
74520;DHT22;63002;48.134;-1.948;2024-02-14T16:29:02;19.20;60.20
74520;DHT22;63002;48.134;-1.948;2024-02-14T16:31:28;19.20;60.20
74520;DHT22;63002;48.134;-1.948;2024-02-14T16:33:54;19.10;60.30
74520;DHT22;63002;48.134;-1.948;2024-02-14T16:36:20;19.20;60.30
74520;DHT22;63002;48.134;-1.948;2024-02-14T16:38:46;19.20;60.30
74520;DHT22;63002;48.134;-1.948;2024-02-14T16:41:12;19.20;60.40
74520;DHT22;63002;48.134;-1.948;2024-02-14T16:43:38;19.20;60.40
74520;DHT22;63002;48.134;-1.948;2024-02-14T16:46:03;19.20;60.40
74520;DHT22;63002;48.134;-1.948;2024-02-14T16:48:29;19.20;60.30
74520;DHT22;63002;48.134;-1.948;2024-02-14T16:50:56;19.20;60.30
74520;DHT22;63002;48.134;-1.948;2024-02-14T16:53:22;19.20;60.30
74520;DHT22;63002;48.134;-1.948;2024-02-14T16:55:48;19.20;60.40
74520;DHT22;63002;48.134;-1.948;2024-02-14T16:58:13;19.20;60.30
74520;DHT22;63002;48.134;-1.948;2024-02-14T17:00:39;19.20;60.40
74520;DHT22;63002;48.134;-1.948;2024-02-14T17:03:05;19.20;60.60
74520;DHT22;63002;48.134;-1.948;2024-02-14T17:05:31;19.20;60.60
74520;DHT22;63002;48.134;-1.948;2024-02-14T17:07:56;19.20;60.50
74520;DHT22;63002;48.134;-1.948;2024-02-14T17:10:22;19.20;60.60
74520;DHT22;63002;48.134;-1.948;2024-02-14T17:12:49;19.20;60.60
74520;DHT22;63002;48.134;-1.948;2024-02-14T17:15:15;19.20;60.50
74520;DHT22;63002;48.134;-1.948;2024-02-14T17:17:41;19.30;60.50
74520;DHT22;63002;48.134;-1.948;2024-02-14T17:20:07;19.20;60.50
74520;DHT22;63002;48.134;-1.948;2024-02-14T17:22:35;19.20;60.30
74520;DHT22;63002;48.134;-1.948;2024-02-14T17:25:00;19.20;60.60
74520;DHT22;63002;48.134;-1.948;2024-02-14T17:27:26;19.20;60.70
74520;DHT22;63002;48.134;-1.948;2024-02-14T17:29:52;19.20;60.70
74520;DHT22;63002;48.134;-1.948;2024-02-14T17:32:18;19.20;60.60
74520;DHT22;63002;48.134;-1.948;2024-02-14T17:34:46;19.20;60.60
74520;DHT22;63002;48.134;-1.948;2024-02-14T17:37:12;19.20;60.50
74520;DHT22;63002;48.134;-1.948;2024-02-14T17:39:38;19.20;60.50
74520;DHT22;63002;48.134;-1.948;2024-02-14T17:42:03;19.20;60.60
74520;DHT22;63002;48.134;-1.948;2024-02-14T17:44:29;19.20;60.40
74520;DHT22;63002;48.134;-1.948;2024-02-14T17:46:55;19.30;60.90
74520;DHT22;63002;48.134;-1.948;2024-02-14T17:49:21;19.30;61.00
74520;DHT22;63002;48.134;-1.948;2024-02-14T17:51:46;19.40;61.00
74520;DHT22;63002;48.134;-1.948;2024-02-14T17:54:15;19.50;61.30
74520;DHT22;63002;48.134;-1.948;2024-02-14T17:56:43;19.50;61.20
74520;DHT22;63002;48.134;-1.948;2024-02-14T17:59:09;19.40;61.30
74520;DHT22;63002;48.134;-1.948;2024-02-14T18:01:35;19.40;61.30
74520;DHT22;63002;48.134;-1.948;2024-02-14T18:04:02;19.40;61.30
74520;DHT22;63002;48.134;-1.948;2024-02-14T18:06:30;19.40;61.20
74520;DHT22;63002;48.134;-1.948;2024-02-14T18:08:56;19.30;61.20
74520;DHT22;63002;48.134;-1.948;2024-02-14T18:11:24;19.30;61.10
74520;DHT22;63002;48.134;-1.948;2024-02-14T18:13:50;19.30;61.10
74520;DHT22;63002;48.134;-1.948;2024-02-14T18:16:18;19.30;61.10
74520;DHT22;63002;48.134;-1.948;2024-02-14T18:18:44;19.30;61.10
74520;DHT22;63002;48.134;-1.948;2024-02-14T18:21:11;19.30;61.10
74520;DHT22;63002;48.134;-1.948;2024-02-14T18:23:37;19.30;61.00
74520;DHT22;63002;48.134;-1.948;2024-02-14T18:26:03;19.30;61.00
74520;DHT22;63002;48.134;-1.948;2024-02-14T18:28:29;19.30;61.00
74520;DHT22;63002;48.134;-1.948;2024-02-14T18:31:03;19.30;60.90
74520;DHT22;63002;48.134;-1.948;2024-02-14T18:33:33;19.30;61.00
74520;DHT22;63002;48.134;-1.948;2024-02-14T18:35:59;19.30;60.90
74520;DHT22;63002;48.134;-1.948;2024-02-14T18:38:27;19.30;60.90
74520;DHT22;63002;48.134;-1.948;2024-02-14T18:40:57;19.30;60.80
74520;DHT22;63002;48.134;-1.948;2024-02-14T18:43:26;19.30;60.90
74520;DHT22;63002;48.134;-1.948;2024-02-14T18:45:52;19.40;61.10
74520;DHT22;63002;48.134;-1.948;2024-02-14T18:48:19;19.40;61.00
74520;DHT22;63002;48.134;-1.948;2024-02-14T18:50:44;19.40;61.10
74520;DHT22;63002;48.134;-1.948;2024-02-14T18:53:10;19.40;61.10
74520;DHT22;63002;48.134;-1.948;2024-02-14T18:55:36;19.40;61.10
74520;DHT22;63002;48.134;-1.948;2024-02-14T18:58:01;19.40;61.10
74520;DHT22;63002;48.134;-1.948;2024-02-14T19:00:27;19.40;61.00
74520;DHT22;63002;48.134;-1.948;2024-02-14T19:02:53;19.40;61.00
74520;DHT22;63002;48.134;-1.948;2024-02-14T19:05:19;19.40;61.00
74520;DHT22;63002;48.134;-1.948;2024-02-14T19:07:45;19.40;61.00
74520;DHT22;63002;48.134;-1.948;2024-02-14T19:10:11;19.30;61.20
74520;DHT22;63002;48.134;-1.948;2024-02-14T19:12:36;19.40;61.40
74520;DHT22;63002;48.134;-1.948;2024-02-14T19:15:02;19.60;62.20
74520;DHT22;63002;48.134;-1.948;2024-02-14T19:17:30;19.70;62.40
74520;DHT22;63002;48.134;-1.948;2024-02-14T19:19:56;19.70;62.10
74520;DHT22;63002;48.134;-1.948;2024-02-14T19:22:22;19.70;62.20
74520;DHT22;63002;48.134;-1.948;2024-02-14T19:24:48;19.70;62.40
74520;DHT22;63002;48.134;-1.948;2024-02-14T19:27:13;19.70;62.40
74520;DHT22;63002;48.134;-1.948;2024-02-14T19:29:39;19.70;62.30
74520;DHT22;63002;48.134;-1.948;2024-02-14T19:32:05;19.70;62.40
74520;DHT22;63002;48.134;-1.948;2024-02-14T19:34:31;19.70;62.40
74520;DHT22;63002;48.134;-1.948;2024-02-14T19:36:56;19.70;62.40
74520;DHT22;63002;48.134;-1.948;2024-02-14T19:39:22;19.70;62.40
74520;DHT22;63002;48.134;-1.948;2024-02-14T19:41:48;19.80;62.40
74520;DHT22;63002;48.134;-1.948;2024-02-14T19:44:14;19.80;62.30
74520;DHT22;63002;48.134;-1.948;2024-02-14T19:46:40;19.80;62.30
74520;DHT22;63002;48.134;-1.948;2024-02-14T19:49:05;19.70;61.30
74520;DHT22;63002;48.134;-1.948;2024-02-14T19:51:32;19.60;62.00
74520;DHT22;63002;48.134;-1.948;2024-02-14T19:54:00;19.60;62.30
74520;DHT22;63002;48.134;-1.948;2024-02-14T19:56:26;19.60;62.40
74520;DHT22;63002;48.134;-1.948;2024-02-14T19:58:53;19.60;62.30
74520;DHT22;63002;48.134;-1.948;2024-02-14T20:01:19;19.60;62.30
74520;DHT22;63002;48.134;-1.948;2024-02-14T20:03:45;19.60;62.40
74520;DHT22;63002;48.134;-1.948;2024-02-14T20:06:12;19.60;62.40
74520;DHT22;63002;48.134;-1.948;2024-02-14T20:08:37;19.60;62.20
74520;DHT22;63002;48.134;-1.948;2024-02-14T20:11:07;19.60;62.30
74520;DHT22;63002;48.134;-1.948;2024-02-14T20:13:34;19.60;62.30
74520;DHT22;63002;48.134;-1.948;2024-02-14T20:16:02;19.60;62.30
74520;DHT22;63002;48.134;-1.948;2024-02-14T20:18:28;19.60;62.30
74520;DHT22;63002;48.134;-1.948;2024-02-14T20:20:54;19.60;62.30
74520;DHT22;63002;48.134;-1.948;2024-02-14T20:23:19;19.60;62.30
74520;DHT22;63002;48.134;-1.948;2024-02-14T20:25:45;19.60;62.20
74520;DHT22;63002;48.134;-1.948;2024-02-14T20:28:11;19.60;62.20
74520;DHT22;63002;48.134;-1.948;2024-02-14T20:30:37;19.60;62.20
74520;DHT22;63002;48.134;-1.948;2024-02-14T20:33:04;19.50;62.20
74520;DHT22;63002;48.134;-1.948;2024-02-14T20:35:31;19.50;62.20
74520;DHT22;63002;48.134;-1.948;2024-02-14T20:37:59;19.50;62.20
74520;DHT22;63002;48.134;-1.948;2024-02-14T20:40:25;19.50;62.20
74520;DHT22;63002;48.134;-1.948;2024-02-14T20:42:51;19.50;62.20
74520;DHT22;63002;48.134;-1.948;2024-02-14T20:45:16;19.50;62.20
74520;DHT22;63002;48.134;-1.948;2024-02-14T20:47:43;19.50;62.10
74520;DHT22;63002;48.134;-1.948;2024-02-14T20:50:09;19.50;62.10
74520;DHT22;63002;48.134;-1.948;2024-02-14T20:52:36;19.50;62.10
74520;DHT22;63002;48.134;-1.948;2024-02-14T20:55:03;19.50;62.10
74520;DHT22;63002;48.134;-1.948;2024-02-14T20:57:29;19.50;62.10
74520;DHT22;63002;48.134;-1.948;2024-02-14T20:59:55;19.50;62.00
74520;DHT22;63002;48.134;-1.948;2024-02-14T21:02:21;19.50;62.10
74520;DHT22;63002;48.134;-1.948;2024-02-14T21:04:48;19.50;62.10
74520;DHT22;63002;48.134;-1.948;2024-02-14T21:07:13;19.50;62.10
74520;DHT22;63002;48.134;-1.948;2024-02-14T21:09:42;19.50;62.10
74520;DHT22;63002;48.134;-1.948;2024-02-14T21:12:09;19.50;62.10